LFBD/BOD METAR and TAF weather

Enter ICAO airport designator
Station Type Date Time Source
LFBD METAR 2019/08/21 22:00 UTC NOAA

LFBD 212200Z AUTO 31003KT CAVOK 19/10 Q1023 NOSIG


Station Type Date Time Source
LFBD Decoded METAR 2019/08/21 22:00 UTC NOAA

Station name not available
Aug 21, 2019 - 06:00 PM EDT / 2019.08.21 2200 UTC
Wind: from the NW (310 degrees) at 3 MPH (3 KT):0
Visibility: greater than 7 mile(s):0
Temperature: 66 F (19 C)
Dew Point: 50 F (10 C)
Relative Humidity: 55%
Pressure (altimeter): 30.21 in. Hg (1023 hPa)
ob: LFBD 212200Z AUTO 31003KT CAVOK 19/10 Q1023 NOSIG
cycle: 22

Station Type Date Time Source
LFBD TAF 2019/08/21 18:21 UTC NOAA

TAF TAF LFBD 211700Z 2118/2224 02008KT CAVOK TX30/2215Z TN14/2206Z

Example: see airport list